Latest Weather Observations for Christmas Creek

IDW60801

Issued at 6:32 pm WST Friday 4 September 2015 (issued every 30 minutes, with the page automatically refreshed every 10 minutes)

About weather observations | Map of weather stations | Latest weather observations for WA | Other Formats
Station Details ID: 505049 Name: CHRISTMAS CREEK Lat: -22.36 Lon: 119.65 Height: 437.21 m
Data from the previous 72 hours. | See also: Recent months for locations in Western Australia
Date/Time
WST
Temp
°C
App
Temp
°C
Dew
Point
Rel
Hum
%
Delta-T
°C
Wind Press
QNH
hPa
Press
MSL
hPa
Rain
since 9 am
mm
Dir
 
Spd
km/h
Gust
km/h
Spd
kts
Gust
kts
04/06:30pm 25.8 22.0 3.8 24 11.1 NW 13 15 7 8 1017.7 1016.0 0.0
04/06:00pm 27.2 23.3 3.5 21 12.0 NW 13 20 7 11 1017.4 1015.6 0.0
04/05:30pm 28.7 23.6 3.0 19 13.1 NW 19 26 10 14 1017.1 1015.3 0.0
04/05:00pm 29.4 22.9 2.7 18 13.6 NNW 26 33 14 18 1016.6 1014.8 0.0
04/04:30pm 29.9 23.7 2.2 17 14.0 NW 24 37 13 20 1016.3 1014.5 0.0
04/04:00pm 30.3 24.9 2.3 16 14.2 NW 20 35 11 19 1016.3 1014.5 0.0
04/03:30pm 30.2 24.2 3.1 17 13.9 NNW 24 35 13 19 1016.3 1014.5 0.0
04/03:00pm 29.6 23.5 2.9 18 13.6 NNW 24 37 13 20 1016.4 1014.6 0.0
04/02:30pm 29.7 23.6 2.6 17 13.8 NW 24 37 13 20 1016.6 1014.8 0.0
04/02:00pm 30.0 24.2 2.3 17 14.0 WNW 22 35 12 19 1016.7 1014.9 0.0
04/01:30pm 29.8 23.6 2.2 17 14.0 NW 24 37 13 20 1016.9 1015.1 0.0
04/01:00pm 29.2 23.0 2.1 17 13.6 NNW 24 37 13 20 1017.2 1015.4 0.0
04/12:30pm 28.9 22.1 0.6 16 13.8 NNW 26 39 14 21 1017.6 1015.8 0.0
04/12:00pm 28.0 22.2 0.2 16 13.4 NNW 20 37 11 20 1017.9 1016.2 0.0
04/11:30am 28.0 22.0 0.8 17 13.3 N 22 35 12 19 1018.6 1016.8 0.0
04/11:00am 26.7 20.4 1.6 19 12.3 N 24 41 13 22 1018.9 1017.1 0.0
04/10:30am 26.4 19.7 1.3 19 12.2 NNE 26 39 14 21 1019.1 1017.3 0.0
04/10:00am 26.0 18.6 -0.8 17 12.5 NE 28 41 15 22 1019.2 1017.4 0.0
04/09:30am 25.1 17.2 -1.7 17 12.2 NE 30 44 16 24 1019.3 1017.5 0.0
04/09:00am 24.1 16.9 -2.4 17 11.8 NE 26 33 14 18 1019.5 1017.7 0.0
04/08:30am 22.6 15.7 -2.9 18 11.1 ENE 24 33 13 18 1019.3 1017.5 0.0
04/08:00am 20.9 14.8 -2.4 21 10.1 ENE 20 26 11 14 1019.1 1017.3 0.0
04/07:30am 19.4 13.5 -2.5 22 9.4 ENE 19 28 10 15 1019.1 1017.3 0.0
04/07:00am 17.9 12.9 -1.1 27 8.2 ENE 15 20 8 11 1018.9 1017.1 0.0
04/06:30am 15.8 11.4 0.5 35 6.7 ENE 13 17 7 9 1019.0 1017.2 0.0
04/06:00am 14.8 11.2 3.0 45 5.4 NE 11 17 6 9 1018.8 1017.0 0.0
04/05:30am 13.1 10.2 4.9 57 3.9 ENE 9 13 5 7 1018.7 1016.9 0.0
04/05:00am 13.5 11.2 4.9 56 4.1 NNE 6 9 3 5 1018.5 1016.7 0.0
04/04:30am 13.8 11.9 4.8 54 4.3 NNE 4 7 2 4 1018.4 1016.6 0.0
04/04:00am 14.3 11.9 4.5 51 4.6 NNE 6 7 3 4 1018.1 1016.3 0.0
04/03:30am 15.6 13.1 4.6 48 5.3 NE 7 9 4 5 1018.2 1016.4 0.0
04/03:00am 14.9 12.2 3.8 47 5.2 ESE 7 11 4 6 1018.2 1016.4 0.0
04/02:30am 16.7 14.3 4.1 43 6.0 NNW 6 7 3 4 1018.4 1016.6 0.0
04/02:00am 17.5 14.1 4.0 40 6.5 N 11 19 6 10 1018.7 1016.9 0.0
04/01:30am 16.5 14.7 3.2 41 6.2 NNE 2 7 1 4 1018.8 1017.0 0.0
04/01:00am 16.6 13.9 2.7 39 6.4 NNE 6 11 3 6 1018.9 1017.1 0.0
04/12:30am 17.5 14.8 2.4 36 7.0 NW 6 11 3 6 1019.1 1017.3 0.0
04/12:00am 18.1 13.8 1.1 32 7.7 N 13 17 7 9 1019.3 1017.5 0.0
 
Date/Time
WST
Temp
°C
App
Temp
°C
Dew
Point
Rel
Hum
%
Delta-T
°C
Wind Press
QNH
hPa
Press
MSL
hPa
Rain
since 9 am
mm
Dir
 
Spd
km/h
Gust
km/h
Spd
kts
Gust
kts
03/11:30pm 18.9 14.8 -0.4 27 8.6 NNE 11 13 6 7 1019.5 1017.7 0.0
03/11:00pm 20.1 15.2 -0.4 25 9.2 N 15 20 8 11 1019.7 1018.0 0.0
03/10:30pm 21.3 15.6 -0.4 23 9.8 N 19 35 10 19 1019.7 1018.0 0.0
03/10:00pm 17.4 14.5 1.2 33 7.3 NE 6 6 3 3 1019.5 1017.7 0.0
03/09:30pm 17.8 14.9 1.2 32 7.6 NE 6 6 3 3 1019.7 1018.0 0.0
03/09:00pm 18.3 15.7 1.1 31 7.8 NNE 4 6 2 3 1019.7 1018.0 0.0
03/08:30pm 19.1 16.9 1.2 30 8.2 NE 2 6 1 3 1019.6 1017.8 0.0
03/08:00pm 20.0 17.5 1.5 29 8.6 NNE 4 7 2 4 1019.4 1017.6 0.0
03/07:30pm 20.9 17.9 1.1 27 9.2 NNE 6 7 3 4 1019.3 1017.5 0.0
03/07:00pm 22.1 19.1 0.5 24 10.0 NNE 6 7 3 4 1019.0 1017.2 0.0
03/06:30pm 24.5 21.4 0.2 20 11.4 NNE 6 7 3 4 1018.7 1016.9 0.0
03/06:00pm 26.0 22.3 -0.3 18 12.4 NE 9 11 5 6 1018.4 1016.6 0.0
03/05:30pm 27.5 23.7 -0.6 16 13.3 NNE 9 13 5 7 1018.3 1016.5 0.0
03/05:00pm 28.2 24.0 -0.9 15 13.8 NNE 11 15 6 8 1018.2 1016.4 0.0
03/04:30pm 28.6 23.3 -0.4 15 13.9 N 17 26 9 14 1017.9 1016.2 0.0
03/04:00pm 28.6 23.3 -0.4 15 13.9 N 17 26 9 14 1017.9 1016.2 0.0
03/03:30pm 28.2 22.9 -0.5 15 13.7 NNE 17 24 9 13 1017.8 1016.1 0.0
03/03:00pm 28.4 23.5 -0.4 15 13.8 NNE 15 32 8 17 1017.7 1016.0 0.0
03/02:30pm 28.6 23.3 -0.6 15 14.0 NNE 17 28 9 15 1017.8 1016.1 0.0
03/02:00pm 28.1 22.2 -0.9 15 13.7 NNE 20 30 11 16 1018.2 1016.4 0.0
03/01:30pm 28.2 22.8 -1.1 15 13.8 ENE 17 32 9 17 1018.4 1016.6 0.0
03/01:00pm 27.4 21.6 -1.7 15 13.5 ENE 19 28 10 15 1018.7 1016.9 0.0
03/12:30pm 27.1 21.1 -1.6 15 13.3 ENE 20 32 11 17 1019.0 1017.2 0.0
03/12:00pm 26.5 20.5 -1.7 15 13.0 NE 20 35 11 19 1019.4 1017.6 0.0
03/11:30am 26.6 19.7 -2.3 15 13.2 NE 24 37 13 20 1019.7 1018.0 0.0
03/11:00am 25.5 20.0 -2.2 16 12.5 ENE 17 28 9 15 1020.3 1018.6 0.0
03/10:30am 24.5 20.6 -1.8 17 11.9 E 9 20 5 11 1020.9 1019.1 0.0
03/10:00am 22.0 18.7 -1.2 21 10.4 SE 6 11 3 6 1021.2 1019.4 0.0
03/09:30am 19.7 16.6 -0.1 26 8.9 SSE 6 22 3 12 1021.3 1019.5 0.0
03/09:00am 18.5 14.7 -0.6 27 8.4 SE 9 15 5 8 1021.4 1019.6 0.0
03/08:30am 16.7 13.7 0.7 34 7.1 SSE 6 9 3 5 1021.2 1019.4 0.0
03/08:00am 14.8 12.0 1.9 41 5.8 SE 6 17 3 9 1021.1 1019.3 0.0
03/07:30am 13.0 10.6 2.3 48 4.8 SE 4 6 2 3 1021.0 1019.2 0.0
03/07:00am 11.7 9.7 2.4 53 4.1 SSW 2 4 1 2 1020.8 1019.0 0.0
03/06:30am 9.9 7.5 2.0 58 3.4 W 4 6 2 3 1020.6 1018.8 0.0
03/06:00am 10.7 8.6 1.9 54 3.8 W 2 6 1 3 1020.2 1018.5 0.0
03/05:30am 10.2 7.3 1.7 55 3.7 WSW 6 7 3 4 1020.0 1018.3 0.0
03/05:00am 10.5 7.4 1.5 53 3.9 WSW 7 9 4 5 1019.6 1017.8 0.0
03/04:30am 10.7 7.8 1.4 52 4.0 WSW 6 7 3 4 1019.1 1017.3 0.0
03/04:00am 11.6 8.2 1.7 50 4.3 WSW 9 15 5 8 1018.8 1017.0 0.0
03/03:30am 12.3 8.9 2.1 49 4.5 WSW 9 19 5 10 1018.7 1016.9 0.0
03/03:00am 16.6 12.8 -0.7 31 7.5 ENE 9 13 5 7 1018.4 1016.6 0.0
03/02:30am 16.9 12.7 -0.8 30 7.7 NE 11 17 6 9 1018.5 1016.7 0.0
03/02:00am 17.1 13.9 -0.8 29 7.8 NNE 6 7 3 4 1018.5 1016.7 0.0
03/01:30am 17.6 14.2 -0.8 28 8.0 NE 7 11 4 6 1018.6 1016.8 0.0
03/01:00am 17.8 13.2 -0.7 28 8.1 ENE 13 24 7 13 1018.7 1016.9 0.0
03/12:30am 18.3 13.0 -0.7 27 8.4 ENE 17 24 9 13 1018.8 1017.0 0.0
03/12:00am 18.6 13.3 -0.7 27 8.5 NE 17 22 9 12 1019.0 1017.2 0.0
 
Date/Time
WST
Temp
°C
App
Temp
°C
Dew
Point
Rel
Hum
%
Delta-T
°C
Wind Press
QNH
hPa
Press
MSL
hPa
Rain
since 9 am
mm
Dir
 
Spd
km/h
Gust
km/h
Spd
kts
Gust
kts
02/11:30pm 19.0 13.3 -0.6 26 8.7 ENE 19 26 10 14 1019.2 1017.4 0.0
02/11:00pm 18.9 13.6 -0.5 27 8.6 ENE 17 22 9 12 1019.3 1017.5 0.0
02/10:30pm 18.5 14.0 -0.1 28 8.3 ENE 13 19 7 10 1019.3 1017.5 0.0
02/10:00pm 17.4 14.2 0.6 32 7.5 ENE 7 9 4 5 1019.6 1017.8 0.0
02/09:30pm 18.1 14.5 0.8 31 7.8 NE 9 13 5 7 1019.8 1018.1 0.0
02/09:00pm 19.1 16.4 0.4 28 8.4 E 4 6 2 3 1019.7 1018.0 0.0
02/08:30pm 19.4 16.7 0.2 27 8.7 E 4 6 2 3 1019.7 1018.0 0.0
02/08:00pm 20.9 17.6 0.4 25 9.4 ESE 7 11 4 6 1019.5 1017.7 0.0
02/07:30pm 21.0 17.7 0.1 24 9.5 ESE 7 11 4 6 1019.3 1017.5 0.0
02/07:00pm 21.8 19.1 0.3 24 9.9 SE 4 11 2 6 1018.8 1017.0 0.0
02/06:30pm 22.3 18.9 -0.3 22 10.4 SSE 7 9 4 5 1018.3 1016.5 0.0
02/06:00pm 23.9 20.7 -0.4 20 11.2 SE 6 9 3 5 1017.7 1016.0 0.0
02/05:30pm 25.1 21.3 -0.8 18 12.0 SE 9 11 5 6 1017.5 1015.7 0.0
02/05:00pm 25.1 20.9 -0.9 18 12.0 SE 11 19 6 10 1017.4 1015.6 0.0
02/04:30pm 25.7 22.5 -0.8 17 12.3 SE 6 11 3 6 1017.3 1015.5 0.0
02/04:00pm 25.3 21.1 -0.9 17 12.1 SE 11 20 6 11 1017.3 1015.5 0.0
02/03:30pm 24.9 21.1 -0.9 18 11.9 ESE 9 17 5 9 1017.2 1015.4 0.0
02/03:00pm 24.3 20.5 -1.1 18 11.6 ESE 9 17 5 9 1017.4 1015.6 0.0
02/02:30pm 24.4 20.2 -1.1 18 11.7 SE 11 20 6 11 1017.7 1016.0 0.0
02/02:00pm 23.8 18.8 -1.5 18 11.4 ENE 15 24 8 13 1018.1 1016.3 0.0
02/01:30pm 23.7 19.0 -1.7 18 11.5 SE 13 22 7 12 1018.5 1016.7 0.0
02/01:00pm 22.6 17.5 -2.0 19 10.9 SE 15 24 8 13 1018.8 1017.0 0.0
02/12:30pm 21.7 16.6 -2.3 20 10.5 ESE 15 24 8 13 1019.3 1017.5 0.0
02/12:00pm 20.9 15.3 -2.7 20 10.2 ESE 17 30 9 16 1019.7 1018.0 0.0
02/11:30am 19.8 13.6 -3.1 21 9.7 SE 20 30 11 16 1020.1 1018.4 0.0
02/11:00am 18.9 12.9 -3.1 22 9.2 ESE 19 30 10 16 1020.7 1018.9 0.0
02/10:30am 18.0 11.4 -3.3 23 8.8 E 22 32 12 17 1020.9 1019.1 0.0
02/10:00am 17.1 10.5 -3.2 25 8.3 ESE 22 33 12 18 1021.2 1019.4 0.0
02/09:30am 16.7 9.8 -2.8 26 8.1 ESE 24 39 13 21 1021.2 1019.4 0.0
02/09:00am 15.3 8.3 -3.1 28 7.4 ESE 24 35 13 19 1021.1 1019.3 -
02/08:30am 14.3 7.5 -2.0 32 6.7 ESE 24 33 13 18 1021.0 1019.2 -
02/08:00am 13.1 6.3 -1.7 36 6.0 SE 24 33 13 18 1021.0 1019.2 -
02/07:30am 12.2 6.3 -0.7 41 5.4 SE 20 24 11 13 1020.7 1018.9 -
02/07:00am 11.4 6.5 -0.3 44 4.8 SSE 15 20 8 11 1020.2 1018.5 -
02/06:30am 10.8 6.4 0.1 47 4.5 SSE 13 17 7 9 1020.0 1018.3 -
02/06:00am 11.0 6.5 -0.2 46 4.6 SSE 13 19 7 10 1019.5 1017.7 -
02/05:30am 11.3 7.2 -0.1 45 4.8 SSE 11 17 6 9 1019.1 1017.3 -
02/05:00am 12.0 7.5 -0.1 43 5.1 SE 13 19 7 10 1018.7 1016.9 -
02/04:30am 12.5 7.7 -0.1 42 5.3 SE 15 22 8 12 1018.6 1016.8 -
02/04:00am 13.0 7.8 -0.1 40 5.5 SE 17 24 9 13 1018.3 1016.5 -
02/03:30am 13.3 7.7 -0.2 39 5.7 SE 19 28 10 15 1018.3 1016.5 -
02/03:00am 14.0 7.4 -0.3 37 6.1 SE 24 37 13 20 1018.2 1016.4 0.0
02/02:30am 14.2 9.3 -0.5 36 6.3 SSE 15 24 8 13 1018.1 1016.3 -
02/02:00am 13.9 9.7 -0.6 37 6.1 SE 11 15 6 8 1018.1 1016.3 -
02/01:30am 14.8 11.6 -0.7 34 6.6 SE 6 7 3 4 1018.2 1016.4 -
02/01:00am 15.2 11.0 -0.8 33 6.8 SE 11 15 6 8 1018.2 1016.4 -
02/12:30am 15.3 11.5 -0.8 33 6.9 SE 9 13 5 7 1018.4 1016.6 -
02/12:00am 15.2 12.4 -0.7 33 6.8 ESE 4 6 2 3 1018.5 1016.7 -
 
Date/Time
WST
Temp
°C
App
Temp
°C
Dew
Point
Rel
Hum
%
Delta-T
°C
Wind Press
QNH
hPa
Press
MSL
hPa
Rain
since 9 am
mm
Dir
 
Spd
km/h
Gust
km/h
Spd
kts
Gust
kts
01/11:30pm 16.0 12.2 -0.4 32 7.1 SE 9 13 5 7 1018.6 1016.8 -
01/11:00pm 16.7 13.6 0.0 32 7.3 SE 6 7 3 4 1018.5 1016.7 -
01/10:30pm 17.7 14.9 -0.3 29 7.9 SE 4 9 2 5 1018.6 1016.8 -
01/10:00pm 17.8 14.5 -0.2 29 7.9 SE 7 11 4 6 1018.4 1016.6 -
01/09:30pm 18.4 15.2 0.9 31 8.0 SE 7 11 4 6 1018.4 1016.6 -
01/09:00pm 19.1 15.7 2.1 32 7.9 SSE 9 11 5 6 1018.2 1016.4 -
01/08:30pm 20.3 16.9 1.7 29 8.7 S 9 13 5 7 1017.9 1016.2 -
01/08:00pm 21.2 17.9 2.2 28 9.0 S 9 15 5 8 1017.6 1015.8 -
01/07:30pm 21.6 18.5 3.6 30 8.8 SSE 9 13 5 7 1017.1 1015.3 -

Other Formats:

Comma delimited format used in spreadsheet applications
http://www.bom.gov.au/fwo/IDW60801/IDW60801.99737.axf

JavaScript Object Notation format (JSON) in row-major order
http://www.bom.gov.au/fwo/IDW60801/IDW60801.99737.json